Aérodrome :
LOGIN :

S'inscrire | Disclaimer

   EN    FR    IT 

 










Légende :    VFR   VFR Marginal   IFR   IFR Intensif   IFR Très Intensif
Visi : 
Plafond : 
>= 8 km
>= 3000ft
5 à 8 km
1000 à 3000 ft
1500m à 5 km
500 à 1000 ft
800 à 1500m
200 à 500 ft
< 800m
< 200 ft
Symboles :   Orages  Brouillard  Fortes neiges  Fortes précipitations  Vent > 20 kt
SIGMETs :   Divers  Orages  Givrage  Turbulence  Onde Orograph.  Cendres Volcan.







- Altitude de l'aérodrome : 1276 ft
- Code IATA : STR


EDDS - Stuttgart

DERNIER METAR :
  • 240020Z 09003KT CAVOK 14/12 Q1014

METARs EXPIRÉS :
  • 232350Z VRB01KT CAVOK 14/12 Q1014
  • 232320Z 08002KT CAVOK 15/12 Q1015
  • 232250Z VRB01KT CAVOK 15/12 Q1015
  • 232220Z 30001KT CAVOK 15/12 Q1015
  • 232150Z 08003KT 040V110 CAVOK 16/11 Q1016
  • 232130Z VRB02KT CAVOK 16/11 Q1016
  • 232123Z VRB02KT CAVOK 16/11 Q1016

TAF TAF EDDS
Valide du 24 à 00h jusqu'au 25 à 00h UTC


232300Z 2400/2424 VRB03KT CAVOK
TEMPO 2406/2411 RA
BECMG 2408/2411 25012KT
TEMPO 2411/2420 28015G25KT
TEMPO 2414/2424 SHRA SCT030TCU
PROB30
TEMPO 2414/2420 TSRA SCT030CB
Pas de NOTAMs connus pour ce terrain.



MET'MAP, la Météo Aéronautique d'un coup d'oeil ! - Copyright ORBIFLY Décembre 2007 - Disclaimer

ORBIFLY MET'MAP TEAM :

Programmation & Développement : Alexandra Zaïnal
Conception & Développement : Baudouin d'Aumeries
Co-Programmation & Développement : Marc-Olivier Méhu
Soutien technique & logistique : Manuel Goepfert

Contact : metmap@orbifly.com




SOURCES & CREDITS :

   NOAA